createdAt,value
2022-08-05T00:01:36.145Z,23.42
2022-08-05T00:04:16.885Z,23.63
2022-08-05T00:06:51.692Z,23.76
2022-08-05T00:09:20.330Z,23.80
2022-08-05T00:11:55.695Z,23.70
2022-08-05T00:14:29.171Z,23.48
2022-08-05T00:17:01.998Z,23.17
2022-08-05T00:19:32.914Z,23.13
2022-08-05T00:22:03.463Z,23.05
2022-08-05T00:24:34.648Z,22.95
2022-08-05T00:27:04.529Z,23.15
2022-08-05T00:29:38.505Z,23.50
2022-08-05T00:32:12.810Z,23.02
2022-08-05T00:35:06.037Z,22.95
2022-08-05T00:37:35.864Z,23.21
2022-08-05T00:40:27.315Z,24.02
2022-08-05T00:42:57.019Z,24.38
2022-08-05T00:45:38.267Z,24.67
2022-08-05T00:48:07.877Z,24.66
2022-08-05T00:50:36.422Z,24.75
2022-08-05T00:53:09.936Z,24.83
2022-08-05T00:55:53.970Z,24.92
2022-08-05T00:58:22.004Z,25.05
2022-08-05T01:00:56.063Z,25.05
2022-08-05T01:03:30.880Z,25.21
2022-08-05T01:06:02.632Z,25.17
2022-08-05T01:08:43.208Z,25.19
2022-08-05T01:11:14.838Z,25.29
2022-08-05T01:14:03.995Z,25.24
2022-08-05T01:16:40.919Z,25.13
2022-08-05T01:19:21.296Z,25.17
2022-08-05T01:22:24.470Z,25.12
2022-08-05T01:25:14.097Z,25.09
2022-08-05T01:28:01.161Z,25.00
2022-08-05T01:30:35.072Z,25.11
2022-08-05T01:33:08.104Z,25.12
2022-08-05T01:35:51.855Z,24.99
2022-08-05T01:38:27.073Z,24.86
2022-08-05T01:40:56.733Z,24.94
2022-08-05T01:43:25.731Z,24.91
2022-08-05T01:45:57.151Z,24.90
2022-08-05T01:48:26.038Z,24.87
2022-08-05T01:50:56.342Z,24.84
2022-08-05T01:53:55.099Z,24.66
2022-08-05T01:58:09.432Z,24.62
2022-08-05T01:59:04.753Z,24.74
2022-08-05T02:01:40.149Z,24.68
2022-08-05T02:04:10.473Z,24.59
2022-08-05T02:06:39.347Z,24.46
2022-08-05T02:09:08.381Z,24.16
2022-08-05T02:11:47.843Z,24.13
2022-08-05T02:14:22.815Z,24.08
2022-08-05T02:16:55.258Z,24.23
2022-08-05T02:19:34.417Z,24.10
2022-08-05T02:22:03.627Z,23.83
2022-08-05T02:24:37.513Z,23.70
2022-08-05T02:27:10.148Z,23.36
2022-08-05T02:29:59.828Z,23.39
2022-08-05T02:32:31.855Z,23.55
2022-08-05T02:35:09.833Z,23.13
2022-08-05T02:37:42.698Z,23.23
2022-08-05T02:40:17.413Z,23.44
2022-08-05T02:42:52.994Z,23.16
2022-08-05T02:45:25.221Z,23.37
2022-08-05T02:48:06.336Z,23.64
2022-08-05T02:50:44.055Z,23.31
2022-08-05T02:53:16.035Z,23.39
2022-08-05T02:55:51.976Z,23.38
2022-08-05T02:58:26.670Z,23.46
2022-08-05T03:00:56.433Z,23.88
2022-08-05T03:03:27.340Z,23.80
2022-08-05T03:06:54.483Z,23.72
2022-08-05T03:08:52.175Z,23.76
2022-08-05T03:11:57.107Z,23.29
2022-08-05T03:14:09.375Z,23.40
2022-08-05T03:16:42.018Z,23.40
2022-08-05T03:19:17.166Z,23.14
2022-08-05T03:21:57.525Z,23.03
2022-08-05T03:24:29.940Z,22.92
2022-08-05T03:26:59.191Z,22.99
2022-08-05T03:29:45.200Z,22.98
2022-08-05T03:32:16.268Z,22.96
2022-08-05T03:34:50.978Z,22.91
2022-08-05T03:37:19.867Z,22.73
2022-08-05T03:40:00.865Z,22.60
2022-08-05T03:42:32.979Z,22.48
2022-08-05T03:45:21.385Z,22.33
2022-08-05T03:47:50.403Z,22.41
2022-08-05T03:50:20.026Z,22.51
2022-08-05T03:55:51.250Z,22.77
2022-08-05T03:56:01.835Z,22.51
2022-08-05T03:58:33.894Z,22.42
2022-08-05T04:01:03.950Z,22.66
2022-08-05T04:03:38.074Z,22.63
2022-08-05T04:06:08.801Z,22.51
2022-08-05T04:08:37.247Z,22.66
2022-08-05T04:11:08.685Z,22.84
2022-08-05T04:13:51.171Z,23.10
2022-08-05T04:16:25.539Z,23.14
2022-08-05T04:19:00.788Z,22.86
2022-08-05T04:22:09.044Z,22.82
2022-08-05T04:24:19.355Z,22.81
2022-08-05T04:26:50.544Z,22.73
2022-08-05T04:29:18.638Z,22.71
2022-08-05T04:31:49.996Z,22.83
2022-08-05T04:34:33.775Z,22.82
2022-08-05T04:37:04.846Z,22.72
2022-08-05T04:39:33.527Z,22.36
2022-08-05T04:42:03.903Z,22.47
2022-08-05T04:44:32.027Z,22.51
2022-08-05T04:47:09.829Z,22.58
2022-08-05T04:50:02.487Z,22.56
2022-08-05T04:52:28.838Z,22.90
2022-08-05T04:54:57.887Z,22.50
2022-08-05T04:57:28.906Z,22.52
2022-08-05T04:59:58.713Z,22.99
2022-08-05T05:02:36.334Z,23.13
2022-08-05T05:05:16.737Z,23.25
2022-08-05T05:08:01.674Z,23.91
2022-08-05T05:10:38.483Z,24.12
2022-08-05T05:13:11.540Z,24.28
2022-08-05T05:16:01.777Z,24.29
2022-08-05T05:18:33.926Z,24.22
2022-08-05T05:21:03.289Z,24.12
2022-08-05T05:23:39.127Z,23.75
2022-08-05T05:26:28.359Z,23.87
2022-08-05T05:29:02.129Z,23.96
2022-08-05T05:34:02.141Z,23.96
2022-08-05T05:36:31.701Z,23.99
2022-08-05T05:38:59.851Z,24.17
2022-08-05T05:41:40.538Z,23.95
2022-08-05T05:44:27.008Z,23.99
2022-08-05T05:47:04.445Z,25.02
2022-08-05T05:49:43.611Z,24.19
2022-08-05T05:52:28.627Z,24.15
2022-08-05T05:55:01.401Z,28.85
2022-08-05T05:57:42.794Z,29.72
2022-08-05T06:00:31.372Z,30.44
2022-08-05T06:02:59.694Z,29.47
2022-08-05T06:05:29.124Z,31.45
2022-08-05T06:08:02.272Z,31.87
2022-08-05T06:10:36.665Z,28.42
2022-08-05T06:13:07.048Z,32.39
2022-08-05T06:16:27.413Z,32.86
2022-08-05T06:18:30.816Z,30.21
2022-08-05T06:21:00.196Z,29.44
2022-08-05T06:23:32.173Z,28.93
2022-08-05T06:26:21.065Z,31.67
2022-08-05T06:28:53.474Z,31.12
2022-08-05T06:31:22.098Z,32.71
2022-08-05T06:34:07.591Z,32.38
2022-08-05T06:36:56.701Z,28.33
2022-08-05T06:39:27.090Z,27.13
2022-08-05T06:41:57.427Z,26.48
2022-08-05T06:44:28.510Z,26.69
2022-08-05T06:46:56.595Z,26.16
2022-08-05T06:50:01.695Z,25.87
2022-08-05T06:52:38.282Z,25.64
2022-08-05T06:55:02.433Z,24.79
2022-08-05T06:58:03.730Z,25.70
2022-08-05T07:00:24.748Z,25.49
2022-08-05T07:02:54.367Z,25.56
2022-08-05T07:05:37.406Z,25.57
2022-08-05T07:08:11.007Z,26.42
2022-08-05T07:10:53.140Z,26.82
2022-08-05T07:13:57.730Z,27.13
2022-08-05T07:18:00.458Z,27.13
2022-08-05T07:22:28.185Z,26.02
2022-08-05T07:24:58.591Z,26.31
2022-08-05T07:30:28.416Z,26.30
2022-08-05T07:33:00.350Z,26.17
2022-08-05T07:36:01.558Z,26.61
2022-08-05T07:38:31.967Z,27.06
2022-08-05T07:42:08.166Z,26.78
2022-08-05T07:43:51.542Z,26.56
2022-08-05T07:46:25.489Z,26.30
2022-08-05T07:49:03.350Z,26.53
2022-08-05T07:51:37.452Z,26.21
2022-08-05T07:54:10.405Z,26.53
2022-08-05T07:57:02.296Z,26.12
2022-08-05T07:59:38.026Z,26.29
2022-08-05T08:02:15.873Z,25.83
2022-08-05T08:04:48.590Z,26.37
2022-08-05T08:07:17.769Z,26.52
2022-08-05T08:09:46.405Z,26.76
2022-08-05T08:12:30.561Z,26.68
2022-08-05T08:15:05.044Z,26.81
2022-08-05T08:17:43.974Z,26.90
2022-08-05T08:20:43.307Z,26.57
2022-08-05T08:24:00.104Z,27.08
2022-08-05T08:25:59.898Z,26.62
2022-08-05T08:28:37.192Z,26.71
2022-08-05T08:31:16.424Z,27.27
2022-08-05T08:33:45.713Z,27.16
2022-08-05T08:36:38.556Z,27.19
2022-08-05T08:39:04.761Z,27.04
2022-08-05T08:41:51.784Z,27.20
2022-08-05T08:45:24.143Z,27.09
2022-08-05T08:47:22.334Z,27.19
2022-08-05T08:50:30.460Z,27.78
2022-08-05T08:53:02.008Z,27.52
2022-08-05T08:56:02.773Z,27.65
2022-08-05T08:58:26.070Z,27.77
2022-08-05T09:01:07.083Z,27.74
2022-08-05T09:03:39.463Z,28.05
2022-08-05T09:06:18.539Z,27.74
2022-08-05T09:08:50.592Z,27.92
2022-08-05T09:11:18.738Z,27.90
2022-08-05T09:14:54.396Z,27.47
2022-08-05T09:16:55.445Z,27.93
2022-08-05T09:19:27.674Z,27.52
2022-08-05T09:22:18.521Z,27.89
2022-08-05T09:24:57.512Z,28.46
2022-08-05T09:28:04.810Z,28.01
2022-08-05T09:30:23.476Z,28.12
2022-08-05T09:32:54.507Z,27.66
2022-08-05T09:35:27.682Z,27.93
2022-08-05T09:38:12.893Z,28.51
2022-08-05T09:40:52.117Z,28.64
2022-08-05T09:43:40.578Z,28.70
2022-08-05T09:46:27.540Z,28.98
2022-08-05T09:49:07.595Z,28.79
2022-08-05T09:51:44.669Z,29.01
2022-08-05T09:54:30.440Z,29.11
2022-08-05T09:57:01.790Z,28.95
2022-08-05T09:59:35.026Z,29.26
2022-08-05T10:02:05.450Z,29.70
2022-08-05T10:04:38.516Z,29.57
2022-08-05T10:07:20.523Z,29.38
2022-08-05T10:10:14.461Z,29.42
2022-08-05T10:12:49.283Z,28.94
2022-08-05T10:15:20.862Z,28.96
2022-08-05T10:18:09.666Z,28.99
2022-08-05T10:20:39.977Z,29.86
2022-08-05T10:23:21.899Z,29.10
2022-08-05T10:26:00.364Z,29.15
2022-08-05T10:28:30.714Z,29.52
2022-08-05T10:32:47.090Z,29.66
2022-08-05T10:33:54.314Z,29.42
2022-08-05T10:36:23.694Z,29.44
2022-08-05T10:38:59.705Z,29.99
2022-08-05T10:41:47.159Z,29.89
2022-08-05T10:44:19.845Z,29.62
2022-08-05T10:46:50.950Z,30.18
2022-08-05T10:49:27.491Z,30.37
2022-08-05T10:52:05.039Z,30.37
2022-08-05T10:54:56.030Z,30.59
2022-08-05T10:57:31.724Z,30.31
2022-08-05T11:00:19.283Z,30.57
2022-08-05T11:03:25.349Z,30.43
2022-08-05T11:06:15.230Z,30.38
2022-08-05T11:08:59.468Z,30.06
2022-08-05T11:11:44.831Z,30.56
2022-08-05T11:14:56.256Z,30.86
2022-08-05T11:17:57.343Z,31.08
2022-08-05T11:20:34.113Z,31.27
2022-08-05T11:23:08.897Z,31.48
2022-08-05T11:26:05.627Z,31.12
2022-08-05T11:28:40.097Z,31.05
2022-08-05T11:31:58.503Z,31.33
2022-08-05T11:34:14.705Z,31.59
2022-08-05T11:36:53.244Z,31.55
2022-08-05T11:39:40.342Z,31.73
2022-08-05T11:42:18.248Z,31.59
2022-08-05T11:44:53.603Z,31.87
2022-08-05T11:47:48.496Z,31.68
2022-08-05T11:50:14.627Z,31.05
2022-08-05T11:52:44.042Z,31.15
2022-08-05T11:55:15.395Z,31.58
2022-08-05T11:58:09.772Z,31.35
2022-08-05T12:00:38.603Z,31.25
2022-08-05T12:03:31.594Z,31.12
2022-08-05T12:06:03.056Z,31.53
2022-08-05T12:08:32.702Z,31.58
2022-08-05T12:11:05.445Z,31.36
2022-08-05T12:13:49.057Z,32.02
2022-08-05T12:16:25.480Z,31.53
2022-08-05T12:18:55.748Z,31.38
2022-08-05T12:21:26.900Z,31.79
2022-08-05T12:24:06.396Z,30.86
2022-08-05T12:26:36.189Z,31.96
2022-08-05T12:29:05.470Z,31.79
2022-08-05T12:31:46.003Z,31.93
2022-08-05T12:34:21.315Z,31.96
2022-08-05T12:36:54.211Z,32.06
2022-08-05T12:39:23.731Z,31.73
2022-08-05T12:42:02.344Z,31.76
2022-08-05T12:44:34.155Z,31.30
2022-08-05T12:47:02.650Z,31.75
2022-08-05T12:50:03.869Z,32.23
2022-08-05T12:52:33.941Z,31.75
2022-08-05T12:55:17.284Z,31.48
2022-08-05T12:58:38.184Z,30.88
2022-08-05T13:02:02.929Z,31.85
2022-08-05T13:03:32.487Z,32.14
2022-08-05T13:06:01.211Z,32.24
2022-08-05T13:08:33.017Z,32.08
2022-08-05T13:11:04.131Z,32.35
2022-08-05T13:14:05.433Z,32.05
2022-08-05T13:16:20.521Z,31.80
2022-08-05T13:18:55.029Z,31.63
2022-08-05T13:21:27.957Z,31.99
2022-08-05T13:24:09.379Z,31.50
2022-08-05T13:26:44.140Z,31.87
2022-08-05T13:29:37.747Z,31.72
2022-08-05T13:32:06.461Z,32.16
2022-08-05T13:34:35.194Z,31.67
2022-08-05T13:37:07.346Z,31.29
2022-08-05T13:40:15.225Z,31.51
2022-08-05T13:42:25.160Z,31.83
2022-08-05T13:44:53.920Z,31.95
2022-08-05T13:47:36.078Z,31.66
2022-08-05T13:50:13.540Z,31.84
2022-08-05T13:52:44.394Z,31.26
2022-08-05T13:55:41.965Z,31.09
2022-08-05T13:58:11.081Z,31.86
2022-08-05T14:00:39.213Z,31.41
2022-08-05T14:03:09.753Z,31.26
2022-08-05T14:06:25.039Z,31.19
2022-08-05T14:08:27.863Z,31.48
2022-08-05T14:11:20.723Z,31.41
2022-08-05T14:13:55.040Z,31.56
2022-08-05T14:16:25.895Z,31.18
2022-08-05T14:18:54.019Z,31.66
2022-08-05T14:22:08.189Z,32.01
2022-08-05T14:24:10.987Z,29.98
2022-08-05T14:26:51.456Z,31.18
2022-08-05T14:29:28.483Z,30.64
2022-08-05T14:32:12.213Z,30.54
2022-08-05T14:34:41.907Z,30.32
2022-08-05T14:37:13.346Z,29.40
2022-08-05T14:39:49.527Z,29.29
2022-08-05T14:42:20.868Z,28.80
2022-08-05T14:44:49.974Z,29.75
2022-08-05T14:47:58.484Z,29.87
2022-08-05T14:50:18.436Z,29.22
2022-08-05T14:52:53.598Z,28.80
2022-08-05T14:55:26.225Z,28.66
2022-08-05T14:58:11.010Z,28.91
2022-08-05T15:00:58.327Z,28.80
2022-08-05T15:03:33.685Z,28.46
2022-08-05T15:06:13.254Z,29.36
2022-08-05T15:08:59.390Z,28.91
2022-08-05T15:11:51.404Z,29.00
2022-08-05T15:14:36.016Z,28.52
2022-08-05T15:17:45.079Z,28.64
2022-08-05T15:19:58.257Z,28.07
2022-08-05T15:22:26.948Z,27.74
2022-08-05T15:24:55.979Z,28.03
2022-08-05T15:27:32.118Z,28.09
2022-08-05T15:30:05.855Z,27.95
2022-08-05T15:32:34.003Z,28.05
2022-08-05T15:35:09.894Z,28.00
2022-08-05T15:38:08.571Z,27.94
2022-08-05T15:40:58.915Z,27.55
2022-08-05T15:43:20.094Z,27.66
2022-08-05T15:46:00.442Z,27.71
2022-08-05T15:48:29.858Z,27.55
2022-08-05T15:51:01.043Z,27.53
2022-08-05T15:53:38.285Z,27.47
2022-08-05T15:56:19.114Z,27.42
2022-08-05T15:58:47.419Z,27.84
2022-08-05T16:01:18.680Z,27.73
2022-08-05T16:03:50.553Z,27.96
2022-08-05T16:06:20.789Z,27.49
2022-08-05T16:08:55.378Z,27.67
2022-08-05T16:11:40.059Z,27.55
2022-08-05T16:14:10.702Z,27.49
2022-08-05T16:16:47.585Z,27.66
2022-08-05T16:19:19.242Z,27.42
2022-08-05T16:22:06.686Z,27.28
2022-08-05T16:24:51.959Z,27.29
2022-08-05T16:27:47.100Z,27.11
2022-08-05T16:30:23.149Z,26.90
2022-08-05T16:32:56.237Z,27.42
2022-08-05T16:35:28.116Z,27.23
2022-08-05T16:38:02.845Z,27.11
2022-08-05T16:40:47.871Z,27.05
2022-08-05T16:43:24.213Z,27.02
2022-08-05T16:46:07.464Z,27.16
2022-08-05T16:48:39.269Z,27.65
2022-08-05T16:51:10.104Z,27.47
2022-08-05T16:54:02.488Z,27.17
2022-08-05T16:56:29.177Z,27.15
2022-08-05T16:58:57.758Z,27.08
2022-08-05T17:01:25.963Z,27.12
2022-08-05T17:03:55.472Z,27.18
2022-08-05T17:06:24.767Z,26.64
2022-08-05T17:08:54.341Z,26.86
2022-08-05T17:11:23.756Z,26.34
2022-08-05T17:13:54.788Z,26.63
2022-08-05T17:16:36.647Z,26.51
2022-08-05T17:19:09.331Z,26.12
2022-08-05T17:21:40.295Z,26.18
2022-08-05T17:24:20.510Z,25.42
2022-08-05T17:26:57.583Z,25.50
2022-08-05T17:29:33.608Z,25.32
2022-08-05T17:32:08.642Z,24.81
2022-08-05T17:34:41.843Z,24.64
2022-08-05T17:37:27.286Z,24.70
2022-08-05T17:40:00.015Z,24.74
2022-08-05T17:42:31.979Z,24.75
2022-08-05T17:45:17.962Z,24.58
2022-08-05T17:47:53.979Z,24.40
2022-08-05T17:50:28.910Z,24.39
2022-08-05T17:52:59.886Z,24.26
2022-08-05T17:55:38.491Z,24.28
2022-08-05T17:58:12.656Z,24.33
2022-08-05T18:00:47.805Z,24.22
2022-08-05T18:03:55.827Z,24.11
2022-08-05T18:06:11.776Z,24.04
2022-08-05T18:08:44.528Z,24.04
2022-08-05T18:11:23.913Z,23.93
2022-08-05T18:13:54.710Z,23.89
2022-08-05T18:16:23.582Z,23.79
2022-08-05T18:18:51.625Z,23.75
2022-08-05T18:21:26.064Z,23.75
2022-08-05T18:23:56.148Z,23.61
2022-08-05T18:26:29.251Z,23.54
2022-08-05T18:28:57.998Z,23.52
2022-08-05T18:31:33.027Z,23.47
2022-08-05T18:34:05.830Z,23.48
2022-08-05T18:36:36.300Z,23.42
2022-08-05T18:39:06.627Z,23.40
2022-08-05T18:41:51.280Z,23.33
2022-08-05T18:44:33.237Z,23.26
2022-08-05T18:47:04.686Z,23.17
2022-08-05T18:49:58.404Z,23.22
2022-08-05T18:52:37.861Z,23.06
2022-08-05T18:55:10.544Z,22.97
2022-08-05T18:57:43.626Z,22.90
2022-08-05T19:00:24.993Z,22.95
2022-08-05T19:06:11.531Z,22.80
2022-08-05T19:08:15.429Z,22.87
2022-08-05T19:10:46.877Z,22.77
2022-08-05T19:13:15.968Z,22.74
2022-08-05T19:15:58.928Z,22.71
2022-08-05T19:18:28.764Z,22.66
2022-08-05T19:20:57.210Z,22.52
2022-08-05T19:24:06.802Z,22.65
2022-08-05T19:26:16.474Z,22.67
2022-08-05T19:28:44.656Z,22.53
2022-08-05T19:31:19.558Z,22.59
2022-08-05T19:33:56.628Z,22.33
2022-08-05T19:36:25.667Z,22.40
2022-08-05T19:39:01.037Z,22.37
2022-08-05T19:42:06.460Z,22.42
2022-08-05T19:44:18.688Z,22.16
2022-08-05T19:46:47.569Z,21.94
2022-08-05T19:49:18.535Z,21.87
2022-08-05T19:52:05.206Z,21.69
2022-08-05T19:54:37.037Z,21.94
2022-08-05T19:57:06.580Z,21.61
2022-08-05T19:59:59.391Z,21.35
2022-08-05T20:02:27.036Z,21.40
2022-08-05T20:04:58.754Z,21.30
2022-08-05T20:07:47.049Z,21.10
2022-08-05T20:10:19.208Z,20.98
2022-08-05T20:12:50.251Z,20.98
2022-08-05T20:15:23.288Z,21.05
2022-08-05T20:18:10.061Z,21.10
2022-08-05T20:20:56.083Z,20.99
2022-08-05T20:23:39.226Z,20.85
2022-08-05T20:26:17.107Z,20.88
2022-08-05T20:28:46.071Z,20.92
2022-08-05T20:31:16.548Z,20.95
2022-08-05T20:33:45.439Z,20.96
2022-08-05T20:36:14.282Z,21.02
2022-08-05T20:38:54.478Z,21.03
2022-08-05T20:41:43.793Z,21.08
2022-08-05T20:44:19.257Z,20.96
2022-08-05T20:46:59.621Z,20.94
2022-08-05T20:49:27.877Z,21.04
2022-08-05T20:51:57.383Z,20.99
2022-08-05T20:54:43.173Z,21.09
2022-08-05T20:57:41.745Z,21.07
2022-08-05T21:00:19.918Z,21.02
2022-08-05T21:02:57.032Z,20.96
2022-08-05T21:05:25.925Z,20.92
2022-08-05T21:08:06.699Z,21.04
2022-08-05T21:10:35.413Z,21.00
2022-08-05T21:13:10.314Z,20.96
2022-08-05T21:15:44.562Z,21.00
2022-08-05T21:18:19.363Z,20.96
2022-08-05T21:20:51.367Z,20.97
2022-08-05T21:23:19.448Z,21.07
2022-08-05T21:25:55.411Z,20.83
2022-08-05T21:28:30.627Z,20.91
2022-08-05T21:30:59.028Z,20.90
2022-08-05T21:33:36.906Z,20.88
2022-08-05T21:36:08.386Z,20.86
2022-08-05T21:38:40.377Z,20.95
2022-08-05T21:41:09.531Z,20.95
2022-08-05T21:43:41.905Z,20.84
2022-08-05T21:46:11.757Z,20.88
2022-08-05T21:48:40.068Z,20.81
2022-08-05T21:52:15.260Z,20.97
2022-08-05T21:53:59.643Z,20.79
2022-08-05T21:56:31.763Z,20.86
2022-08-05T21:59:07.757Z,20.83
2022-08-05T22:02:37.074Z,20.83
2022-08-05T22:05:05.958Z,20.67
2022-08-05T22:07:40.186Z,20.87
2022-08-05T22:10:26.497Z,20.71
2022-08-05T22:12:57.197Z,20.80
2022-08-05T22:16:01.097Z,20.97
2022-08-05T22:18:15.226Z,20.67
2022-08-05T22:20:47.694Z,20.77
2022-08-05T22:24:02.476Z,20.47
2022-08-05T22:26:43.179Z,20.48
2022-08-05T22:29:18.697Z,20.44
2022-08-05T22:31:47.050Z,20.49
2022-08-05T22:34:28.507Z,20.45
2022-08-05T22:36:58.532Z,20.52
2022-08-05T22:39:31.102Z,20.40
2022-08-05T22:42:11.141Z,20.41
2022-08-05T22:44:42.502Z,20.33
2022-08-05T22:47:29.812Z,20.35
2022-08-05T22:50:21.847Z,20.33
2022-08-05T22:52:49.441Z,20.37
2022-08-05T22:55:18.599Z,20.37
2022-08-05T22:57:48.832Z,20.34
2022-08-05T23:00:20.938Z,20.25
2022-08-05T23:02:49.661Z,20.27
2022-08-05T23:05:21.894Z,20.22
2022-08-05T23:07:50.700Z,20.28
2022-08-05T23:10:19.505Z,20.22
2022-08-05T23:12:51.570Z,20.35
2022-08-05T23:15:29.051Z,20.30
2022-08-05T23:18:01.756Z,20.26
2022-08-05T23:20:33.282Z,20.25
2022-08-05T23:23:08.638Z,20.19
2022-08-05T23:25:52.523Z,20.05
2022-08-05T23:28:23.917Z,20.31
2022-08-05T23:30:54.891Z,20.16
2022-08-05T23:34:03.311Z,20.10
2022-08-05T23:36:13.861Z,20.08
2022-08-05T23:38:42.752Z,20.07
2022-08-05T23:41:11.362Z,20.04
2022-08-05T23:44:05.431Z,20.03
2022-08-05T23:46:27.665Z,19.99
2022-08-05T23:49:00.346Z,19.97
2022-08-05T23:51:54.049Z,20.13
2022-08-05T23:54:25.495Z,20.30
2022-08-05T23:57:04.190Z,20.23
